Time;durP1;ratioP1;P1;durP2;ratioP2;P2;SDS_P1;SDS_P2;PMS_P1;PMS_P2;Temp;Humidity;BMP_temperature;BMP_pressure;BME280_temperature;BME280_humidity;BME280_pressure;Samples;Min_cycle;Max_cycle;Signal;HPM_P1;HPM_P2
2022/12/26 00:00:16;;;;;;;2.50;2.20;;;17.00;99.90;;;;;;4215693;28;20255;-74
2022/12/26 00:02:20;;;;;;;2.70;2.30;;;16.90;99.90;;;;;;4206885;28;20206;-74
2022/12/26 00:04:23;;;;;;;2.60;2.40;;;16.90;99.90;;;;;;4212280;28;20563;-74
2022/12/26 00:06:28;;;;;;;2.40;2.20;;;16.90;99.90;;;;;;4213422;28;20214;-75
2022/12/26 00:08:31;;;;;;;2.28;2.08;;;16.90;99.90;;;;;;4203843;28;20214;-74
2022/12/26 00:10:33;;;;;;;2.83;2.50;;;16.90;99.90;;;;;;4208566;28;20254;-74
2022/12/26 00:12:35;;;;;;;2.53;2.33;;;16.90;99.90;;;;;;4209738;28;20234;-74
2022/12/26 00:14:39;;;;;;;2.30;2.10;;;16.90;99.90;;;;;;4210969;28;20273;-74
2022/12/26 00:16:42;;;;;;;3.42;2.58;;;16.90;99.90;;;;;;4215742;28;20263;-74
2022/12/26 00:18:47;;;;;;;2.83;2.35;;;16.90;99.90;;;;;;4213022;28;20214;-74
2022/12/26 00:20:49;;;;;;;2.10;1.90;;;16.90;99.90;;;;;;4202810;28;20211;-74
2022/12/26 00:22:51;;;;;;;2.35;2.15;;;16.90;99.90;;;;;;4199547;28;20211;-74
2022/12/26 00:24:54;;;;;;;2.92;2.50;;;16.90;99.90;;;;;;4215656;28;20214;-75
2022/12/26 00:26:56;;;;;;;2.42;2.00;;;16.90;99.90;;;;;;4207786;28;20215;-75
2022/12/26 00:28:59;;;;;;;3.55;2.50;;;16.90;99.90;;;;;;4199455;28;20264;-75
2022/12/26 00:31:04;;;;;;;3.25;2.72;;;16.90;99.90;;;;;;4205024;28;20210;-75
2022/12/26 00:33:06;;;;;;;2.72;2.33;;;16.90;99.90;;;;;;4203991;28;20283;-75
2022/12/26 00:35:10;;;;;;;2.67;2.45;;;16.90;99.90;;;;;;4213094;28;20218;-74
2022/12/26 00:37:13;;;;;;;3.28;2.45;;;16.90;99.90;;;;;;4215555;28;20211;-74
2022/12/26 00:39:18;;;;;;;2.60;2.40;;;16.90;99.90;;;;;;4203184;28;20572;-74
2022/12/26 00:41:21;;;;;;;3.08;2.10;;;16.90;99.90;;;;;;4210147;28;20210;-74
2022/12/26 00:43:23;;;;;;;2.58;2.38;;;16.90;99.90;;;;;;4214807;28;20276;-74
2022/12/26 00:45:25;;;;;;;3.42;2.25;;;16.90;99.90;;;;;;4214388;28;20247;-74
2022/12/26 00:47:28;;;;;;;2.40;2.20;;;16.90;99.90;;;;;;4211300;28;20276;-74
2022/12/26 00:49:30;;;;;;;3.60;2.28;;;16.90;99.90;;;;;;4202848;28;20207;-74
2022/12/26 00:51:34;;;;;;;2.50;2.30;;;16.90;99.90;;;;;;4203536;28;20632;-74
2022/12/26 00:53:37;;;;;;;2.80;2.55;;;16.90;99.90;;;;;;4199454;28;20284;-74
2022/12/26 00:55:40;;;;;;;2.35;2.03;;;16.90;99.90;;;;;;4214828;28;20218;-74
2022/12/26 00:57:42;;;;;;;2.42;2.22;;;16.90;99.90;;;;;;4214487;28;20279;-74
2022/12/26 00:59:44;;;;;;;2.38;2.05;;;16.80;99.90;;;;;;4200511;28;20215;-74
2022/12/26 01:01:47;;;;;;;1.95;1.85;;;16.90;99.90;;;;;;4213146;28;20218;-74
2022/12/26 01:03:50;;;;;;;2.30;2.00;;;16.90;99.90;;;;;;4215226;28;20214;-74
2022/12/26 01:05:53;;;;;;;2.40;2.20;;;16.90;99.90;;;;;;4206867;28;20606;-74
2022/12/26 01:07:56;;;;;;;2.33;2.13;;;16.80;99.90;;;;;;4209856;28;20214;-74
2022/12/26 01:09:59;;;;;;;2.50;2.30;;;16.90;99.90;;;;;;4206611;28;20745;-74
2022/12/26 01:12:01;;;;;;;2.55;2.20;;;16.90;99.90;;;;;;4214095;28;20651;-74
2022/12/26 01:14:03;;;;;;;3.40;2.50;;;16.90;99.90;;;;;;4205743;28;20210;-74
2022/12/26 01:16:07;;;;;;;2.35;2.15;;;16.90;99.90;;;;;;4198408;28;20219;-74
2022/12/26 01:18:09;;;;;;;2.40;2.20;;;16.90;99.90;;;;;;4199107;28;20610;-74
2022/12/26 01:20:12;;;;;;;2.95;2.30;;;16.90;99.90;;;;;;4203705;28;20255;-74
2022/12/26 01:22:14;;;;;;;2.80;2.15;;;16.80;99.90;;;;;;4211858;28;20291;-75
2022/12/26 01:24:18;;;;;;;2.40;2.20;;;16.80;99.90;;;;;;4207808;28;20223;-74
2022/12/26 01:26:20;;;;;;;2.45;2.10;;;16.80;99.90;;;;;;4201246;28;20219;-75
2022/12/26 01:28:23;;;;;;;2.75;2.10;;;16.90;99.90;;;;;;4207400;28;20211;-74
2022/12/26 01:30:25;;;;;;;2.50;2.30;;;16.80;99.90;;;;;;4214874;28;20211;-74
2022/12/26 01:32:28;;;;;;;2.72;2.30;;;16.80;99.90;;;;;;4205519;28;20283;-74
2022/12/26 01:34:30;;;;;;;2.47;2.28;;;16.80;99.90;;;;;;4209667;28;20219;-74
2022/12/26 01:36:32;;;;;;;2.85;2.38;;;16.80;99.90;;;;;;4203323;28;20232;-74
2022/12/26 01:38:35;;;;;;;2.25;1.90;;;16.80;99.90;;;;;;4214158;28;20252;-74
2022/12/26 01:40:42;;;;;;;2.67;2.28;;;16.80;99.90;;;;;;4214462;28;20272;-74
2022/12/26 01:42:45;;;;;;;2.83;2.10;;;16.80;99.90;;;;;;4205342;28;20209;-74
2022/12/26 01:45:03;;;;;;;2.35;1.95;;;16.90;99.90;;;;;;4214450;28;20233;-74
2022/12/26 01:47:06;;;;;;;2.08;1.88;;;16.80;99.90;;;;;;4214250;28;20256;-74
2022/12/26 01:49:14;;;;;;;2.33;2.10;;;16.80;99.90;;;;;;4214084;28;20343;-75
2022/12/26 01:51:20;;;;;;;2.30;2.08;;;16.80;99.90;;;;;;4214118;28;20260;-74
2022/12/26 01:53:26;;;;;;;2.35;2.15;;;16.80;99.90;;;;;;4206554;28;20713;-74
2022/12/26 01:55:29;;;;;;;2.15;1.75;;;16.80;99.90;;;;;;4213925;28;20264;-74
2022/12/26 01:57:38;;;;;;;2.72;2.30;;;16.80;99.90;;;;;;4203841;28;20242;-74
2022/12/26 01:59:41;;;;;;;2.53;2.20;;;16.80;99.90;;;;;;4210051;28;20304;-74
2022/12/26 02:01:47;;;;;;;2.40;2.20;;;16.80;99.90;;;;;;4211925;28;20214;-74
2022/12/26 02:06:10;;;;;;;2.35;1.98;;;16.80;99.90;;;;;;4198304;28;20203;-74
2022/12/26 02:08:16;;;;;;;2.72;2.17;;;16.80;99.90;;;;;;4197447;28;20215;-74
2022/12/26 02:10:23;;;;;;;2.50;2.10;;;16.80;99.90;;;;;;4207659;28;20202;-74
2022/12/26 02:12:30;;;;;;;2.42;2.17;;;16.80;99.90;;;;;;4213640;28;20260;-74
2022/12/26 02:14:34;;;;;;;2.20;1.83;;;16.80;99.90;;;;;;4209727;28;20215;-74
2022/12/26 02:16:38;;;;;;;2.40;2.17;;;16.80;99.90;;;;;;4203541;28;20623;-74
2022/12/26 02:18:41;;;;;;;2.40;2.15;;;16.80;99.90;;;;;;4207065;28;20211;-74
2022/12/26 02:20:53;;;;;;;2.67;2.45;;;16.80;99.90;;;;;;4196707;28;20269;-74
2022/12/26 02:23:54;;;;;;;3.53;2.28;;;16.80;99.90;;;;;;4204589;28;20207;-74
2022/12/26 02:26:32;;;;;;;2.42;2.22;;;16.80;99.90;;;;;;4210544;28;20211;-74
2022/12/26 02:28:58;;;;;;;2.50;2.30;;;16.80;99.90;;;;;;4205652;28;20214;-74
2022/12/26 02:31:09;;;;;;;1.80;1.65;;;16.80;99.90;;;;;;4204880;28;20219;-74
2022/12/26 02:33:34;;;;;;;2.58;2.22;;;16.80;99.90;;;;;;4203097;28;20279;-74
2022/12/26 02:35:55;;;;;;;2.15;1.90;;;16.70;99.90;;;;;;4213589;28;20245;-74
2022/12/26 02:38:11;;;;;;;2.30;1.85;;;16.80;99.90;;;;;;4202590;28;20215;-74
2022/12/26 02:40:27;;;;;;;2.40;2.17;;;16.80;99.90;;;;;;4196465;28;20215;-74
2022/12/26 02:42:37;;;;;;;2.63;2.17;;;16.70;99.90;;;;;;4212970;28;20215;-75
2022/12/26 02:47:14;;;;;;;2.30;1.92;;;16.70;99.90;;;;;;4211354;28;20200;-75
2022/12/26 02:49:21;;;;;;;2.80;2.03;;;16.70;99.90;;;;;;4207506;28;20271;-74
2022/12/26 03:13:22;;;;;;;2.42;2.13;;;16.70;99.90;;;;;;4199885;28;20619;-74
2022/12/26 03:15:27;;;;;;;2.33;2.03;;;16.70;99.90;;;;;;4213277;28;20315;-74
2022/12/26 03:17:32;;;;;;;2.95;1.83;;;16.70;99.90;;;;;;4211539;28;20214;-75
2022/12/26 03:19:56;;;;;;;2.25;2.05;;;16.70;99.90;;;;;;4199363;28;20211;-74
2022/12/26 03:22:29;;;;;;;2.20;2.00;;;16.70;99.90;;;;;;4197743;28;20211;-74
2022/12/26 03:26:38;;;;;;;2.20;2.00;;;16.70;99.90;;;;;;4209160;28;20215;-74
2022/12/26 03:26:51;;;;;;;2.72;2.10;;;16.70;99.90;;;;;;4212378;28;20228;-74
2022/12/26 03:30:47;;;;;;;2.25;1.80;;;16.70;99.90;;;;;;4205093;28;20639;-74
2022/12/26 03:31:16;;;;;;;2.38;2.17;;;16.70;99.90;;;;;;4205850;28;20219;-74
2022/12/26 03:35:45;;;;;;;2.08;1.88;;;16.70;99.90;;;;;;4213096;28;20593;-74
2022/12/26 03:37:53;;;;;;;2.20;1.92;;;16.70;99.90;;;;;;4209247;28;20260;-74
2022/12/26 04:19:24;;;;;;;2.17;1.98;;;16.60;99.90;;;;;;4203870;28;20195;-74
2022/12/26 04:45:30;;;;;;;2.10;1.90;;;16.60;99.90;;;;;;4204564;28;20199;-74
2022/12/26 04:47:33;;;;;;;2.00;1.80;;;16.60;99.90;;;;;;4201804;28;20215;-74
2022/12/26 04:52:05;;;;;;;1.95;1.75;;;16.60;99.90;;;;;;4213805;28;20564;-74
2022/12/26 04:54:07;;;;;;;1.80;1.67;;;16.60;99.90;;;;;;4213889;28;20634;-74
2022/12/26 04:56:11;;;;;;;2.22;1.95;;;16.60;99.90;;;;;;4205367;28;20215;-74
2022/12/26 04:58:16;;;;;;;1.70;1.60;;;16.60;99.90;;;;;;4210368;28;20238;-74
2022/12/26 05:00:19;;;;;;;2.20;1.70;;;16.60;99.90;;;;;;4199396;28;20214;-74
2022/12/26 05:09:34;;;;;;;2.20;2.00;;;16.60;99.90;;;;;;4215058;28;20202;-74
2022/12/26 05:11:37;;;;;;;2.15;1.95;;;16.60;99.90;;;;;;4214946;28;20226;-74
2022/12/26 05:13:40;;;;;;;2.05;1.63;;;16.60;99.90;;;;;;4214922;28;20257;-74
2022/12/26 05:29:59;;;;;;;2.25;1.70;;;16.60;99.90;;;;;;4204156;28;20643;-74
2022/12/26 05:32:01;;;;;;;1.65;1.55;;;16.60;99.90;;;;;;4204359;28;20218;-74
2022/12/26 05:34:05;;;;;;;1.73;1.60;;;16.60;99.90;;;;;;4213370;28;20256;-74
2022/12/26 05:36:08;;;;;;;1.70;1.60;;;16.60;99.90;;;;;;4201594;28;20241;-75
2022/12/26 05:38:11;;;;;;;1.88;1.60;;;16.60;99.90;;;;;;4213947;28;20732;-74
2022/12/26 05:40:13;;;;;;;1.85;1.75;;;16.60;99.90;;;;;;4211593;28;20267;-74
2022/12/26 05:42:15;;;;;;;1.80;1.70;;;16.60;99.90;;;;;;4211896;28;20218;-74
2022/12/26 05:44:18;;;;;;;1.70;1.60;;;16.60;99.90;;;;;;4211372;28;20589;-74
2022/12/26 05:46:21;;;;;;;1.90;1.58;;;16.60;99.90;;;;;;4205451;28;20215;-75
2022/12/26 05:48:24;;;;;;;1.95;1.75;;;16.60;99.90;;;;;;4211129;28;20311;-74
2022/12/26 05:50:26;;;;;;;2.03;1.83;;;16.60;99.90;;;;;;4214274;28;20264;-74
2022/12/26 05:52:29;;;;;;;1.50;1.40;;;16.60;99.90;;;;;;4214000;28;20214;-74
2022/12/26 05:54:31;;;;;;;1.88;1.52;;;16.60;99.90;;;;;;4208077;28;20261;-74
2022/12/26 05:56:33;;;;;;;2.63;2.00;;;16.60;99.90;;;;;;4209614;28;20276;-74
2022/12/26 05:58:36;;;;;;;1.70;1.60;;;16.60;99.90;;;;;;4213623;28;20237;-74
2022/12/26 06:00:38;;;;;;;1.42;1.33;;;16.60;99.90;;;;;;4214049;28;20260;-74
2022/12/26 06:02:42;;;;;;;2.17;1.60;;;16.60;99.90;;;;;;4203711;28;20199;-74
2022/12/26 06:04:44;;;;;;;2.10;1.83;;;16.60;99.90;;;;;;4209804;28;20206;-75
2022/12/26 06:06:46;;;;;;;1.75;1.52;;;16.60;99.90;;;;;;4206541;28;20704;-74
2022/12/26 06:08:50;;;;;;;1.70;1.50;;;16.60;99.90;;;;;;4196100;28;20207;-74
2022/12/26 06:10:53;;;;;;;2.10;1.90;;;16.60;99.90;;;;;;4199871;28;20218;-75
2022/12/26 06:12:55;;;;;;;2.00;1.80;;;16.60;99.90;;;;;;4210430;28;20243;-74
2022/12/26 06:14:58;;;;;;;1.50;1.40;;;16.60;99.90;;;;;;4213875;28;20582;-74
2022/12/26 06:17:00;;;;;;;1.65;1.50;;;16.60;99.90;;;;;;4213932;28;20287;-74
2022/12/26 06:19:04;;;;;;;1.95;1.52;;;16.60;99.90;;;;;;4213753;28;20273;-74
2022/12/26 06:21:08;;;;;;;1.98;1.77;;;16.60;99.90;;;;;;4210912;28;20259;-74
2022/12/26 06:23:10;;;;;;;1.88;1.40;;;16.60;99.90;;;;;;4203699;28;20211;-74
2022/12/26 06:25:12;;;;;;;2.00;1.85;;;16.60;99.90;;;;;;4196950;28;20207;-74
2022/12/26 06:27:15;;;;;;;1.73;1.60;;;16.60;99.90;;;;;;4207812;28;21044;-74
2022/12/26 06:29:17;;;;;;;2.45;1.52;;;16.60;99.90;;;;;;4203310;28;20260;-75
2022/12/26 06:31:22;;;;;;;1.40;1.30;;;16.60;99.90;;;;;;4202069;28;20211;-74
2022/12/26 06:33:24;;;;;;;1.60;1.50;;;16.60;99.90;;;;;;4204845;28;20210;-74
2022/12/26 06:35:28;;;;;;;1.90;1.55;;;16.60;99.90;;;;;;4200814;28;20239;-74
2022/12/26 06:37:32;;;;;;;1.73;1.63;;;16.60;99.90;;;;;;4210379;28;20214;-74
2022/12/26 06:39:34;;;;;;;1.95;1.40;;;16.60;99.90;;;;;;4209953;28;20260;-74
2022/12/26 06:41:37;;;;;;;1.63;1.40;;;16.60;99.90;;;;;;4208565;28;20248;-74
2022/12/26 06:43:39;;;;;;;1.63;1.50;;;16.60;99.90;;;;;;4213215;28;20218;-74
2022/12/26 06:45:42;;;;;;;1.98;1.70;;;16.60;99.90;;;;;;4198557;28;20207;-74
2022/12/26 06:47:45;;;;;;;1.60;1.50;;;16.60;99.90;;;;;;4201938;28;20207;-74
2022/12/26 06:49:47;;;;;;;2.10;1.80;;;16.70;99.90;;;;;;4207206;28;20214;-74
2022/12/26 06:51:51;;;;;;;1.67;1.33;;;16.70;99.90;;;;;;4198313;28;20621;-74
2022/12/26 06:53:54;;;;;;;1.85;1.75;;;16.70;99.90;;;;;;4197169;28;20257;-74
2022/12/26 06:56:06;;;;;;;1.50;1.40;;;16.70;99.90;;;;;;4211804;28;20288;-74
2022/12/26 06:58:09;;;;;;;1.92;1.73;;;16.70;99.90;;;;;;4205539;28;20237;-74
2022/12/26 07:00:13;;;;;;;1.67;1.58;;;16.70;99.90;;;;;;4201735;28;20266;-74
2022/12/26 07:02:16;;;;;;;1.80;1.60;;;16.70;99.90;;;;;;4212857;28;20222;-74
2022/12/26 07:04:18;;;;;;;1.77;1.42;;;16.70;99.90;;;;;;4210152;28;20211;-74
2022/12/26 07:06:23;;;;;;;1.50;1.40;;;16.70;99.90;;;;;;4208483;28;20301;-74
2022/12/26 07:08:27;;;;;;;1.63;1.23;;;16.70;99.90;;;;;;4211625;28;20235;-74
2022/12/26 07:10:29;;;;;;;1.40;1.30;;;16.80;99.90;;;;;;4208275;28;20206;-74
2022/12/26 07:12:34;;;;;;;1.60;1.30;;;16.80;99.90;;;;;;4196217;28;20215;-74
2022/12/26 07:14:36;;;;;;;2.08;1.35;;;16.90;99.90;;;;;;4204656;28;20211;-74
2022/12/26 07:16:40;;;;;;;1.70;1.17;;;16.90;99.90;;;;;;4201735;28;20214;-74
2022/12/26 07:18:43;;;;;;;1.27;1.13;;;16.90;99.90;;;;;;4213167;28;20993;-75
2022/12/26 07:20:45;;;;;;;1.77;1.30;;;17.00;99.90;;;;;;4213363;28;20202;-74
2022/12/26 07:22:48;;;;;;;1.40;1.30;;;17.00;99.90;;;;;;4212573;28;20207;-75
2022/12/26 07:24:51;;;;;;;1.20;1.10;;;17.00;99.90;;;;;;4212804;28;20222;-75
2022/12/26 07:26:54;;;;;;;1.40;1.10;;;16.90;99.90;;;;;;4212585;28;20214;-74
2022/12/26 07:28:57;;;;;;;1.42;1.33;;;17.00;99.90;;;;;;4212452;28;20218;-74
2022/12/26 07:31:00;;;;;;;1.55;1.33;;;17.00;99.90;;;;;;4210761;28;20244;-75
2022/12/26 07:33:02;;;;;;;1.30;1.20;;;17.00;99.90;;;;;;4212909;28;20266;-74
2022/12/26 07:35:05;;;;;;;1.30;1.20;;;17.00;99.90;;;;;;4212917;28;20313;-74
2022/12/26 07:37:08;;;;;;;1.13;1.02;;;17.00;99.90;;;;;;4211187;28;20263;-74
2022/12/26 07:39:13;;;;;;;1.70;1.27;;;17.00;99.90;;;;;;4212482;28;20268;-74
2022/12/26 07:43:36;;;;;;;1.50;1.40;;;17.00;99.90;;;;;;4212534;28;20679;-74
2022/12/26 07:45:39;;;;;;;1.52;1.30;;;17.10;99.90;;;;;;4212803;28;20218;-74
2022/12/26 07:47:41;;;;;;;1.17;0.95;;;17.10;99.90;;;;;;4210888;28;20260;-74
2022/12/26 07:49:44;;;;;;;1.52;1.08;;;17.10;99.90;;;;;;4212719;28;20274;-74
2022/12/26 07:51:46;;;;;;;1.20;1.10;;;17.10;99.90;;;;;;4212709;28;20608;-74
2022/12/26 07:53:48;;;;;;;1.88;1.20;;;17.10;99.90;;;;;;4212422;28;20226;-74
2022/12/26 07:55:51;;;;;;;1.25;1.10;;;17.10;99.90;;;;;;4196388;28;20279;-74
2022/12/26 07:57:54;;;;;;;1.30;1.20;;;17.10;99.90;;;;;;4204425;28;20238;-74
2022/12/26 07:59:57;;;;;;;1.15;1.05;;;17.10;99.90;;;;;;4212596;28;20279;-75
2022/12/26 08:02:03;;;;;;;1.52;1.27;;;17.20;99.90;;;;;;4211764;28;20299;-74
2022/12/26 08:04:05;;;;;;;1.45;1.35;;;17.10;99.90;;;;;;4211076;28;20210;-74
2022/12/26 08:06:10;;;;;;;1.23;1.08;;;17.20;99.90;;;;;;4206222;28;20211;-74
2022/12/26 08:08:12;;;;;;;1.30;1.20;;;17.10;99.90;;;;;;4210493;28;20240;-74
2022/12/26 08:10:15;;;;;;;1.52;1.10;;;17.10;99.90;;;;;;4196241;28;20635;-74
2022/12/26 08:12:20;;;;;;;1.20;1.10;;;17.10;99.90;;;;;;4200663;28;20223;-74
2022/12/26 08:14:24;;;;;;;1.20;1.10;;;17.20;99.90;;;;;;4203342;28;20215;-74
2022/12/26 08:16:26;;;;;;;1.10;1.00;;;17.20;99.90;;;;;;4211043;28;20283;-74
2022/12/26 08:18:28;;;;;;;1.20;1.10;;;17.20;99.90;;;;;;4215081;28;20211;-74
2022/12/26 08:20:31;;;;;;;1.30;1.20;;;17.20;99.90;;;;;;4210913;28;20207;-74
2022/12/26 08:22:33;;;;;;;1.52;1.20;;;17.20;99.90;;;;;;4198743;28;20215;-74
2022/12/26 08:24:35;;;;;;;0.93;0.80;;;17.30;99.90;;;;;;4211749;28;20261;-74
2022/12/26 08:26:38;;;;;;;1.35;1.10;;;17.30;99.90;;;;;;4214834;28;20654;-74
2022/12/26 08:28:40;;;;;;;1.42;1.00;;;17.20;99.90;;;;;;4215467;28;20268;-74
2022/12/26 08:30:44;;;;;;;1.20;1.10;;;17.30;99.90;;;;;;4209382;28;20211;-74
2022/12/26 08:32:46;;;;;;;1.27;1.00;;;17.20;99.90;;;;;;4212191;28;20264;-74
2022/12/26 08:34:49;;;;;;;1.50;1.35;;;17.30;99.90;;;;;;4205567;28;20712;-74
2022/12/26 08:36:51;;;;;;;1.70;1.25;;;17.30;99.90;;;;;;4215306;28;20276;-74
2022/12/26 08:38:53;;;;;;;1.00;0.90;;;17.40;99.90;;;;;;4207524;28;20215;-74
2022/12/26 08:40:56;;;;;;;1.35;1.13;;;17.30;99.90;;;;;;4215714;28;20259;-74
2022/12/26 08:42:59;;;;;;;1.40;1.13;;;17.30;99.90;;;;;;4215495;28;20253;-74
2022/12/26 08:45:01;;;;;;;1.25;0.95;;;17.30;99.90;;;;;;4206419;28;20265;-74
2022/12/26 08:47:05;;;;;;;1.27;1.05;;;17.30;99.90;;;;;;4203876;28;20211;-74
2022/12/26 08:49:07;;;;;;;1.67;1.23;;;17.40;99.90;;;;;;4214559;28;20210;-75
2022/12/26 08:51:13;;;;;;;1.10;0.98;;;17.30;99.90;;;;;;4215137;28;20314;-74
2022/12/26 08:53:16;;;;;;;1.60;1.20;;;17.30;99.90;;;;;;4214271;28;20256;-74
2022/12/26 08:55:18;;;;;;;1.33;1.10;;;17.30;99.90;;;;;;4206953;28;20277;-81
2022/12/26 08:57:20;;;;;;;1.23;0.90;;;17.40;99.90;;;;;;4214007;28;20241;-81
2022/12/26 08:59:23;;;;;;;1.67;0.85;;;17.40;99.90;;;;;;4219642;28;20271;-81
2022/12/26 09:01:27;;;;;;;1.13;1.00;;;17.40;99.90;;;;;;4207409;28;20223;-81
2022/12/26 09:03:31;;;;;;;1.42;1.10;;;17.40;99.90;;;;;;4218545;28;20263;-81
2022/12/26 09:05:33;;;;;;;1.00;1.00;;;17.40;99.90;;;;;;4217606;28;20244;-81
2022/12/26 09:07:35;;;;;;;1.77;1.13;;;17.40;99.90;;;;;;4219761;28;20659;-81
2022/12/26 09:09:38;;;;;;;1.23;0.98;;;17.50;99.90;;;;;;4220298;28;20218;-81
2022/12/26 09:11:41;;;;;;;0.95;0.93;;;17.40;99.90;;;;;;4219386;28;20666;-81
2022/12/26 09:13:46;;;;;;;1.13;1.02;;;17.40;99.90;;;;;;4219551;28;20218;-81
2022/12/26 09:15:48;;;;;;;1.40;1.13;;;17.50;99.90;;;;;;4219466;28;20214;-81
2022/12/26 09:17:51;;;;;;;1.92;1.30;;;17.50;99.90;;;;;;4214586;28;20218;-82
2022/12/26 09:19:54;;;;;;;1.23;1.00;;;17.50;99.90;;;;;;4219949;28;20215;-81
2022/12/26 09:24:15;;;;;;;1.13;0.90;;;17.50;99.90;;;;;;4220284;28;20198;-82
2022/12/26 09:26:20;;;;;;;2.00;1.10;;;17.50;99.90;;;;;;4221391;28;20244;-82
2022/12/26 09:28:22;;;;;;;1.13;1.02;;;17.50;99.90;;;;;;4221075;28;20711;-81
2022/12/26 09:30:25;;;;;;;2.03;1.20;;;17.50;99.90;;;;;;4220785;28;20274;-81
2022/12/26 09:32:27;;;;;;;1.30;1.00;;;17.50;99.90;;;;;;4212646;28;20211;-82
2022/12/26 09:34:29;;;;;;;0.73;0.73;;;17.50;99.90;;;;;;4204079;28;20253;-82
2022/12/26 09:36:36;;;;;;;1.40;0.93;;;17.50;99.90;;;;;;4219504;28;20226;-82
2022/12/26 09:38:39;;;;;;;0.95;0.90;;;17.50;99.90;;;;;;4214855;28;20238;-82
2022/12/26 09:40:59;;;;;;;0.90;0.80;;;17.60;99.90;;;;;;4208459;28;20237;-82
2022/12/26 09:43:14;;;;;;;1.13;0.90;;;17.50;99.90;;;;;;4211679;28;20206;-81
2022/12/26 09:45:19;;;;;;;1.00;0.90;;;17.50;99.90;;;;;;4211908;28;20275;-81
2022/12/26 09:47:31;;;;;;;1.15;0.98;;;17.50;99.90;;;;;;4219763;28;20626;-81
2022/12/26 09:49:37;;;;;;;1.10;0.90;;;17.60;99.90;;;;;;4220532;28;20214;-81
2022/12/26 09:51:44;;;;;;;1.08;0.80;;;17.60;99.90;;;;;;4205759;28;20278;-81
2022/12/26 09:53:47;;;;;;;1.70;1.05;;;17.60;99.90;;;;;;4213171;28;20222;-81
2022/12/26 09:55:55;;;;;;;1.20;1.05;;;17.60;99.90;;;;;;4219794;28;20211;-81
2022/12/26 09:58:04;;;;;;;1.13;1.00;;;17.60;99.90;;;;;;4208824;28;20287;-82
2022/12/26 10:00:07;;;;;;;0.95;0.90;;;17.60;99.90;;;;;;4211597;28;20210;-81
2022/12/26 10:02:17;;;;;;;1.00;0.85;;;17.60;99.90;;;;;;4202872;28;20680;-82
2022/12/26 10:04:23;;;;;;;1.65;0.95;;;17.60;99.90;;;;;;4207159;28;20255;-82
2022/12/26 10:06:28;;;;;;;1.50;0.90;;;17.60;99.90;;;;;;4222494;28;20202;-82
2022/12/26 10:08:46;;;;;;;1.05;0.85;;;17.60;99.90;;;;;;4216905;28;20211;-82
2022/12/26 10:10:55;;;;;;;1.48;1.10;;;17.60;99.90;;;;;;4211642;28;20210;-82
2022/12/26 10:13:07;;;;;;;1.63;1.02;;;17.60;99.90;;;;;;4220412;28;20231;-81
2022/12/26 10:15:29;;;;;;;1.23;0.98;;;17.60;99.90;;;;;;4221619;28;20214;-81
2022/12/26 10:17:37;;;;;;;1.85;1.10;;;17.70;99.90;;;;;;4221203;28;20256;-82
2022/12/26 10:19:49;;;;;;;2.28;1.13;;;17.60;99.90;;;;;;4205988;28;20214;-82
2022/12/26 10:21:59;;;;;;;1.20;0.90;;;17.70;99.90;;;;;;4209391;28;20605;-82
2022/12/26 10:24:08;;;;;;;1.23;0.98;;;17.70;99.90;;;;;;4213849;28;20218;-82
2022/12/26 10:26:15;;;;;;;0.98;0.80;;;17.70;99.90;;;;;;4217235;28;20218;-81
2022/12/26 10:28:27;;;;;;;1.65;0.80;;;17.70;99.90;;;;;;4204563;28;20237;-81
2022/12/26 10:30:37;;;;;;;1.10;0.90;;;17.70;99.90;;;;;;4215796;28;20234;-82
2022/12/26 10:32:44;;;;;;;1.80;1.00;;;17.70;99.90;;;;;;4225869;28;20207;-81
2022/12/26 10:34:48;;;;;;;1.08;1.02;;;17.70;99.90;;;;;;4218799;28;20268;-82
2022/12/26 10:36:54;;;;;;;1.10;0.90;;;17.70;99.90;;;;;;4219996;28;20635;-81
2022/12/26 10:39:00;;;;;;;1.00;0.80;;;17.70;99.90;;;;;;4213913;28;20203;-81
2022/12/26 10:41:09;;;;;;;0.90;0.90;;;17.70;99.90;;;;;;4215981;28;20712;-82
2022/12/26 10:43:22;;;;;;;1.35;1.10;;;17.80;99.90;;;;;;4221678;28;20264;-82
2022/12/26 10:45:35;;;;;;;0.60;0.60;;;17.80;99.90;;;;;;4222297;28;20222;-82
2022/12/26 10:47:39;;;;;;;1.20;0.93;;;17.80;99.90;;;;;;4222695;28;20233;-82
2022/12/26 10:49:44;;;;;;;1.00;0.70;;;17.80;99.90;;;;;;4221878;28;20206;-82
2022/12/26 10:51:46;;;;;;;1.15;0.90;;;17.80;99.90;;;;;;4212670;28;20206;-82
2022/12/26 10:53:51;;;;;;;1.38;1.10;;;17.80;99.90;;;;;;4221689;28;20708;-82
2022/12/26 10:55:55;;;;;;;1.00;0.70;;;17.80;99.90;;;;;;4223387;28;20232;-81
2022/12/26 10:58:05;;;;;;;1.08;0.95;;;17.80;99.90;;;;;;4220369;28;20283;-81
2022/12/26 11:00:17;;;;;;;1.67;0.75;;;17.80;99.90;;;;;;4212109;28;20214;-81
2022/12/26 11:02:24;;;;;;;0.90;0.80;;;17.90;99.90;;;;;;4217194;28;20260;-81
2022/12/26 11:04:27;;;;;;;0.90;0.75;;;17.90;99.90;;;;;;4221321;28;20225;-82
2022/12/26 11:06:33;;;;;;;1.92;0.80;;;17.80;99.90;;;;;;4230369;28;20199;-82
2022/12/26 11:08:38;;;;;;;1.38;0.90;;;17.80;99.90;;;;;;4215355;28;20198;-82
2022/12/26 11:10:45;;;;;;;1.58;0.85;;;17.80;99.90;;;;;;4215857;28;20260;-81
2022/12/26 11:12:49;;;;;;;1.33;1.00;;;17.90;99.90;;;;;;4218993;28;20260;-82
2022/12/26 11:14:58;;;;;;;1.00;0.80;;;17.90;99.90;;;;;;4219565;28;20578;-81
2022/12/26 11:17:04;;;;;;;0.85;0.77;;;17.90;99.90;;;;;;4213480;28;20304;-81
2022/12/26 11:19:09;;;;;;;1.02;0.80;;;17.90;99.90;;;;;;4205257;28;20687;-81
2022/12/26 11:21:19;;;;;;;1.55;0.93;;;17.90;99.90;;;;;;4203571;28;20215;-81
2022/12/26 11:23:27;;;;;;;1.23;0.80;;;17.90;99.90;;;;;;4220082;28;20210;-82
2022/12/26 11:25:33;;;;;;;1.20;0.80;;;17.90;99.90;;;;;;4219985;28;20214;-81
2022/12/26 11:27:37;;;;;;;1.02;0.80;;;17.90;99.90;;;;;;4218636;28;20252;-81
2022/12/26 11:29:41;;;;;;;0.88;0.68;;;17.90;99.90;;;;;;4219739;28;20244;-82
2022/12/26 11:31:53;;;;;;;1.35;1.08;;;17.90;99.90;;;;;;4210829;28;20208;-81
2022/12/26 11:33:55;;;;;;;1.80;1.00;;;17.90;99.90;;;;;;4210191;28;20210;-81
2022/12/26 11:36:11;;;;;;;1.08;0.77;;;17.90;99.90;;;;;;4218332;28;20218;-81
2022/12/26 11:38:33;;;;;;;1.33;0.73;;;17.90;99.90;;;;;;4211820;28;20246;-81
2022/12/26 11:40:38;;;;;;;0.88;0.70;;;17.90;99.90;;;;;;4217511;28;20210;-82
2022/12/26 11:42:40;;;;;;;1.27;0.90;;;18.00;99.90;;;;;;4209801;28;20214;-82
2022/12/26 11:44:44;;;;;;;1.30;0.80;;;18.00;99.90;;;;;;4219796;28;20955;-82
2022/12/26 11:46:52;;;;;;;1.80;0.90;;;17.90;99.90;;;;;;4210236;28;20210;-81
2022/12/26 11:48:55;;;;;;;1.20;0.60;;;18.00;99.90;;;;;;4211239;28;20316;-82
2022/12/26 11:50:57;;;;;;;1.48;0.90;;;18.00;99.90;;;;;;4212592;28;20267;-81
2022/12/26 11:53:06;;;;;;;1.10;0.80;;;18.00;99.90;;;;;;4222605;28;20210;-81
2022/12/26 11:55:32;;;;;;;1.58;1.05;;;18.00;99.90;;;;;;4212468;28;20219;-82
2022/12/26 11:57:35;;;;;;;0.95;0.85;;;18.00;99.90;;;;;;4218617;28;20233;-82
2022/12/26 11:59:38;;;;;;;1.10;0.80;;;18.00;99.90;;;;;;4220836;28;20214;-82
2022/12/26 12:01:40;;;;;;;1.92;0.90;;;18.00;99.90;;;;;;4214949;28;20218;-82
2022/12/26 12:03:46;;;;;;;1.20;0.77;;;18.00;99.90;;;;;;4221064;28;20646;-82
2022/12/26 12:05:54;;;;;;;1.08;0.68;;;18.00;99.90;;;;;;4220332;28;20234;-81
2022/12/26 12:08:18;;;;;;;1.00;0.80;;;18.00;99.90;;;;;;4220141;28;20279;-82
2022/12/26 12:11:11;;;;;;;2.08;1.08;;;18.10;99.90;;;;;;4214375;28;20348;-82
2022/12/26 12:13:25;;;;;;;1.67;0.80;;;18.10;99.90;;;;;;4141122;28;20259;-82
2022/12/26 12:15:31;;;;;;;0.70;0.70;;;18.10;99.90;;;;;;4198650;28;20271;-82
2022/12/26 12:17:39;;;;;;;1.30;0.80;;;18.00;99.90;;;;;;4219288;28;20215;-81
2022/12/26 12:19:53;;;;;;;1.23;0.80;;;18.10;99.90;;;;;;4209146;28;20273;-81
2022/12/26 12:22:32;;;;;;;1.63;0.95;;;18.10;99.90;;;;;;4211953;28;20658;-82
2022/12/26 12:24:46;;;;;;;1.08;0.85;;;18.10;99.90;;;;;;4191169;28;20272;-82
2022/12/26 12:26:56;;;;;;;1.23;0.77;;;18.10;99.90;;;;;;4213551;28;20219;-82
2022/12/26 12:29:26;;;;;;;1.83;0.80;;;18.10;99.90;;;;;;4205036;28;20664;-82
2022/12/26 12:31:37;;;;;;;1.75;0.73;;;18.10;99.90;;;;;;4210314;28;20214;-81
2022/12/26 12:33:48;;;;;;;1.40;0.80;;;18.10;99.90;;;;;;4221203;28;20240;-82
2022/12/26 12:36:03;;;;;;;1.05;0.88;;;18.10;99.90;;;;;;4219231;28;20218;-82
2022/12/26 12:38:30;;;;;;;1.67;1.00;;;18.10;99.90;;;;;;4211351;28;20751;-82
2022/12/26 12:40:40;;;;;;;1.83;0.82;;;18.10;99.90;;;;;;4221649;28;20210;-82
2022/12/26 12:42:51;;;;;;;1.88;0.82;;;18.10;99.90;;;;;;4220096;28;20210;-82
2022/12/26 12:45:04;;;;;;;1.50;0.80;;;18.10;99.90;;;;;;4221248;28;20209;-82
2022/12/26 12:47:14;;;;;;;1.23;0.80;;;18.10;99.90;;;;;;4221241;28;20214;-82
2022/12/26 12:49:41;;;;;;;1.30;0.90;;;18.10;99.90;;;;;;4222227;28;20232;-82
2022/12/26 12:51:54;;;;;;;1.60;0.93;;;18.10;99.90;;;;;;4221647;28;20290;-82
2022/12/26 12:54:22;;;;;;;1.52;0.77;;;18.20;99.90;;;;;;4205056;28;20302;-82
2022/12/26 12:56:37;;;;;;;1.75;0.95;;;18.20;99.90;;;;;;4217904;28;20210;-82
2022/12/26 12:58:46;;;;;;;2.47;1.23;;;18.20;99.90;;;;;;4215295;28;20234;-82